• Join FlightAware (Why Join?)
  • Login
  • US Flag 
04:08PM EST


 

Airport Tracker/Info


-or-


 

Live Flight TrackerFlight Track Log ✈ N983CA ✈ 16-Apr-2013 ✈ KDEN - KMFR

Flight Track Log - Related Links

Times and Time Zones

All times are in EDT time to prevent confusion due to time zone crossing. See the N983CA flight status page for this flight to view local times or setup timezone preferences in your user account.

Time Position Orientation Groundspeed Altitude Reporting Facility
EDT Latitude Longitude Course Direction KTS MPH feet Rate Location/Type
09:23PM 39.8000 -104.6667 277° West 194 223 7,000  Level Denver TRACON
09:24PM 39.7500 -104.6833 194° South 230 265 8,900 2,340 Climbing Denver TRACON
09:25PM 39.7111 -104.7000 198° South 241 277 10,400 1,560 Climbing Denver Center
09:26PM 39.8947 -105.2136 276° West  Level FlightAware Approximate
09:26PM 39.6872 -104.7861 250° West 304 350 11,600  Level Denver Center
09:27PM 39.9161 -105.3477 288° West  Level FlightAware Approximate
09:27PM 39.7239 -104.8983 293° West 334 384 13,700  Level Denver Center
09:28PM 39.9289 -105.4844 277° West  Level FlightAware Approximate
09:28PM 39.7611 -105.0153 293° West 327 376 15,900  Level Denver Center
09:29PM 39.7969 -105.1253 293° West 332 382 17,800 1,740 Climbing Denver Center
09:30PM 39.8317 -105.2347 292° West 327 376 19,500 1,500 Climbing Denver Center
09:31PM 39.8539 -105.3619 283° West 333 383 20,900 1,320 Climbing Denver Center
09:32PM 39.8692 -105.4806 280° West 330 380 22,300 1,380 Climbing Denver Center
09:33PM 39.8875 -105.5986 281° West 333 383 23,800 1,320 Climbing Denver Center
09:34PM 39.9053 -105.7214 281° West 319 367 25,100 1,260 Climbing Denver Center
09:35PM 39.9225 -105.8372 281° West 318 366 26,400 960 Climbing Denver Center
09:36PM 39.9386 -105.9561 280° West 329 379 27,100 720 Climbing Denver Center
09:37PM 39.9578 -106.0758 282° West 335 386 27,900 840 Climbing Denver Center
09:38PM 39.9753 -106.1978 281° West 338 389 28,900 720 Climbing Denver Center
09:39PM 39.9919 -106.3200 280° West 339 390 29,500 780 Climbing Denver Center
09:40PM 40.0106 -106.4392 282° West 335 386 30,500 960 Climbing Denver Center
09:41PM 40.0292 -106.5642 281° West 330 380 31,500 720 Climbing Denver Center
09:42PM 40.0453 -106.6744 281° West 326 375 32,000 240 Climbing Denver Center
09:43PM 40.0633 -106.8075 280° West 330 380 32,000  Level Denver Center
09:44PM 40.0808 -106.9272 281° West 345 397 32,000  Level Denver Center
09:45PM 40.0989 -107.0683 280° West 352 405 32,000  Level Denver Center
09:46PM 40.1167 -107.1911 281° West 358 412 32,000  Level Denver Center
09:47PM 40.1367 -107.3339 280° West 359 413 32,000  Level Denver Center
09:48PM 40.1531 -107.4578 280° West 361 415 32,000  Level Denver Center
09:49PM 40.1683 -107.5822 279° West 363 418 32,000  Level Denver Center
09:50PM 40.1894 -107.7278 281° West 365 420 32,000  Level Denver Center
09:51PM 40.2056 -107.8525 280° West 365 420 32,000  Level Denver Center
09:52PM 40.2244 -108.0003 280° West 367 422 32,000  Level Denver Center
09:53PM 40.2414 -108.1272 280° West 370 426 32,000  Level Denver Center
09:54PM 40.2606 -108.2764 280° West 373 429 32,000  Level Denver Center
09:55PM 40.2767 -108.4056 279° West 376 433 32,000  Level Denver Center
09:57PM 40.2936 -108.5350 280° West 377 434 32,000  Level Denver Center
09:58PM 40.3117 -108.6872 279° West 380 437 32,000  Level Denver Center
09:58PM 40.3172 -108.7369 278° West 380 437 32,000  Level Salt Lake Center
09:59PM 40.3358 -108.8858 279° West 386 444 32,000  Level Salt Lake Center
10:00PM 40.3461 -108.9753 279° West 388 447 32,000  Level Denver Center
10:01PM 40.3628 -109.1111 279° West 394 453 32,000  Level Denver Center
10:01PM 40.3711 -109.1783 279° West 393 452 32,000  Level Salt Lake Center
10:02PM 40.3819 -109.2689 279° West 395 455 32,000  Level Denver Center
10:03PM 40.3978 -109.4022 279° West 391 450 32,000  Level Denver Center
10:03PM 40.4061 -109.4711 279° West 393 452 32,000  Level Salt Lake Center
10:04PM 40.4219 -109.6092 279° West 398 458 32,000  Level Salt Lake Center
10:05PM 40.4375 -109.7478 278° West 401 461 32,000  Level Salt Lake Center
10:06PM 40.4558 -109.9106 278° West 404 465 32,000  Level Salt Lake Center
10:07PM 40.4711 -110.0519 278° West 409 471 32,000  Level Salt Lake Center
10:08PM 40.4869 -110.1933 278° West 410 472 32,000  Level Salt Lake Center
10:09PM 40.5061 -110.3597 279° West 412 474 32,000  Level Salt Lake Center
10:10PM 40.5206 -110.5019 278° West 411 473 32,000  Level Salt Lake Center
10:11PM 40.5383 -110.6625 278° West 418 481 32,000  Level Salt Lake Center
10:12PM 40.5547 -110.8125 278° West 416 479 32,000  Level Salt Lake Center
10:13PM 40.5697 -110.9628 278° West 416 479 32,000  Level Salt Lake Center
10:14PM 40.5858 -111.1139 278° West 418 481 32,000  Level Salt Lake Center
10:15PM 40.6017 -111.2642 278° West 416 479 32,000  Level Salt Lake Center
10:16PM 40.6175 -111.4153 278° West 418 481 32,000  Level Salt Lake Center
10:17PM 40.6311 -111.5653 277° West 411 473 32,000  Level Salt Lake Center
10:18PM 40.6492 -111.7469 278° West 415 478 32,000  Level Salt Lake Center
10:19PM 40.6633 -111.8983 277° West 413 475 32,000  Level Salt Lake Center
10:20PM 40.6794 -112.0503 278° West 415 478 32,000  Level Salt Lake Center
10:21PM 40.6992 -112.2008 280° West 416 479 32,000  Level Salt Lake Center
10:22PM 40.7186 -112.3525 280° West 417 480 32,000  Level Salt Lake Center
10:23PM 40.7378 -112.5033 280° West 416 479 32,000  Level Salt Lake Center
10:24PM 40.7575 -112.6569 280° West 423 487 32,000  Level Salt Lake Center
10:26PM 40.7758 -112.8086 279° West 423 487 32,000  Level Salt Lake Center
10:27PM 40.7950 -112.9611 279° West 422 486 32,000  Level Salt Lake Center
10:28PM 40.8139 -113.1133 279° West 423 487 32,000  Level Salt Lake Center
10:29PM 40.8322 -113.2669 279° West 424 488 32,000  Level Salt Lake Center
10:30PM 40.8500 -113.4203 279° West 423 487 32,000  Level Salt Lake Center
10:31PM 40.8717 -113.6047 279° West 424 488 32,000  Level Salt Lake Center
10:32PM 40.8892 -113.7583 279° West 424 488 32,000  Level Salt Lake Center
10:33PM 40.9058 -113.9119 278° West 424 488 32,000  Level Salt Lake Center
10:34PM 40.9239 -114.0675 279° West 427 491 32,000  Level Salt Lake Center
10:35PM 40.9400 -114.2225 278° West 427 491 32,000  Level Salt Lake Center
10:36PM 40.9578 -114.3761 279° West 425 489 32,000  Level Salt Lake Center
10:37PM 40.9767 -114.5492 278° West 427 491 32,000  Level Salt Lake Center
10:38PM 40.9919 -114.6972 278° West 426 490 32,000  Level Salt Lake Center
10:39PM 41.0069 -114.8458 278° West 426 490 32,000  Level Salt Lake Center
10:40PM 41.0250 -115.0203 278° West 427 491 32,000  Level Salt Lake Center
10:41PM 41.0408 -115.1706 278° West 429 494 32,000  Level Salt Lake Center
10:42PM 41.0597 -115.3475 278° West 432 497 32,000  Level Salt Lake Center
10:43PM 41.0756 -115.5003 278° West 434 499 32,000  Level Salt Lake Center
10:44PM 41.0894 -115.6506 277° West 434 499 32,000  Level Salt Lake Center
10:45PM 41.1078 -115.8264 278° West 432 497 32,000  Level Salt Lake Center
10:46PM 41.1214 -115.9756 277° West 429 494 32,000  Level Salt Lake Center
10:47PM 41.1383 -116.1486 277° West 426 490 32,000  Level Salt Lake Center
10:48PM 41.1528 -116.2994 277° West 428 493 32,000  Level Salt Lake Center
10:49PM 41.1669 -116.4483 277° West 428 493 32,000  Level Salt Lake Center
10:50PM 41.1819 -116.6208 277° West 424 488 32,000  Level Salt Lake Center
10:51PM 41.1944 -116.7683 276° West 422 486 32,000  Level Salt Lake Center
10:52PM 41.2100 -116.9394 277° West 420 483 32,000  Level Salt Lake Center
10:53PM 41.2228 -117.0872 277° West 421 484 32,000  Level Salt Lake Center
10:54PM 41.2350 -117.2347 276° West 422 486 32,000  Level Salt Lake Center
10:55PM 41.2492 -117.4067 276° West 422 486 32,000  Level Salt Lake Center
10:56PM 41.2614 -117.5553 276° West 423 487 32,000  Level Salt Lake Center
10:57PM 41.2753 -117.7281 276° West 422 486 32,000  Level Salt Lake Center
10:58PM 41.2864 -117.8769 276° West 423 487 32,000  Level Salt Lake Center
10:59PM 41.2989 -118.0244 276° West 422 486 32,000  Level Salt Lake Center
11:00PM 41.3111 -118.1986 275° West 423 487 32,000  Level Salt Lake Center
11:01PM 41.3231 -118.3478 276° West 424 488 32,000  Level Salt Lake Center
11:02PM 41.3331 -118.4981 275° West 425 489 32,000  Level Salt Lake Center
11:03PM 41.3464 -118.6697 276° West 421 484 32,000  Level Salt Lake Center
11:04PM 41.3569 -118.8181 275° West 420 483 32,000  Level Salt Lake Center
11:05PM 41.3689 -118.9950 275° West 426 490 32,000  Level Salt Lake Center
11:06PM 41.3789 -119.1467 275° West 428 493 32,000  Level Salt Lake Center
11:07PM 41.3889 -119.2978 275° West 429 494 32,000  Level Salt Lake Center
11:08PM 41.4017 -119.4742 276° West 427 491 32,000  Level Salt Lake Center
11:09PM 41.4086 -119.6108 274° West 430 495 32,000  Level Salt Lake Center
11:10PM 41.4214 -119.8011 275° West 431 496 32,000  Level Salt Lake Center
11:11PM 41.4314 -119.9583 275° West 429 494 32,000  Level Salt Lake Center
11:13PM 41.4614 -120.0883 287° West 418 481 32,000  Level Seattle Center
11:14PM 41.5136 -120.2208 298° West 406 467 32,000  Level Seattle Center
11:15PM 41.5744 -120.3822 297° West 406 467 32,000  Level Seattle Center
11:16PM 41.6283 -120.5150 299° West 406 467 32,000  Level Seattle Center
11:17PM 41.6781 -120.6500 296° West 404 465 32,000  Level Seattle Center
11:18PM 41.7267 -120.7833 296° West 401 461 32,000  Level Seattle Center
11:19PM 41.7756 -120.9150 297° West 399 459 32,000  Level Seattle Center
11:20PM 41.8222 -121.0472 295° West 394 453 32,000 -960 Level Seattle Center
11:21PM 41.8692 -121.1781 296° West 390 449 30,100 -2,520 Descending Seattle Center
11:22PM 41.9133 -121.3033 295° West 379 436 27,000 -2,760 Descending Seattle Center
11:23PM 41.9572 -121.4286 295° West 371 427 24,600 -2,520 Descending Seattle Center
11:24PM 41.9992 -121.5528 294° West 369 425 21,900 -2,580 Descending Seattle Center
11:25PM 42.0431 -121.6792 295° West 374 430 19,500 -2,040 Descending Seattle Center
11:26PM 42.0836 -121.8003 294° West 365 420 17,800 -1,380 Descending Seattle Center
11:27PM 42.1219 -121.9133 295° West 347 399 16,800 -1,080 Descending Seattle Center
11:28PM 42.1603 -122.0233 295° West 339 390 15,700 -1,320 Descending Seattle Center
11:29PM 42.2072 -122.1603 295° West 341 392 14,200 -1,500 Descending Seattle Center
11:30PM 42.2442 -122.2711 294° West 327 376 12,700 -1,260 Descending Seattle Center
11:31PM 42.2789 -122.3742 295° West 300 345 11,700 -1,380 Descending Seattle Center
11:32PM 42.3039 -122.4703 289° West 272 313 9,900 -1,740 Descending Seattle Center
11:33PM 42.3222 -122.5708 284° West 275 316 8,200 -1,440 Descending Seattle Center
11:34PM 42.3392 -122.6661 284° West 263 303 7,100 -1,140 Descending Seattle Center